createdAt,value
2019-05-19T00:00:50.691Z,11.90
2019-05-19T00:03:20.957Z,11.85
2019-05-19T00:08:45.951Z,11.80
2019-05-19T00:11:15.428Z,11.71
2019-05-19T00:13:44.823Z,11.65
2019-05-19T00:16:14.491Z,11.58
2019-05-19T00:22:01.101Z,11.36
2019-05-19T00:25:09.915Z,11.27
2019-05-19T00:28:19.026Z,11.27
2019-05-19T00:34:13.133Z,11.08
2019-05-19T00:36:42.837Z,11.07
2019-05-19T00:39:12.658Z,11.10
2019-05-19T00:42:21.844Z,11.12
2019-05-19T00:44:51.399Z,11.12
2019-05-19T00:47:23.160Z,10.86
2019-05-19T00:55:24.192Z,10.82
2019-05-19T01:03:47.144Z,10.76
2019-05-19T01:06:16.490Z,10.63
2019-05-19T01:08:46.095Z,10.57
2019-05-19T01:11:15.512Z,10.57
2019-05-19T01:13:45.041Z,10.59
2019-05-19T01:16:14.879Z,10.62
2019-05-19T01:18:44.297Z,10.64
2019-05-19T01:21:53.179Z,10.58
2019-05-19T01:25:02.029Z,10.39
2019-05-19T01:30:46.840Z,10.23
2019-05-19T01:33:17.172Z,10.10
2019-05-19T01:38:42.721Z,9.94
2019-05-19T01:44:21.915Z,9.92
2019-05-19T01:47:30.781Z,9.97
2019-05-19T01:50:40.167Z,9.94
2019-05-19T01:56:36.600Z,9.87
2019-05-19T02:02:01.532Z,9.75
2019-05-19T02:05:10.853Z,9.71
2019-05-19T02:07:40.711Z,9.78
2019-05-19T02:13:18.788Z,9.85
2019-05-19T02:15:49.510Z,9.87
2019-05-19T02:18:19.344Z,9.79
2019-05-19T02:21:28.339Z,9.78
2019-05-19T02:23:58.315Z,9.85
2019-05-19T02:26:27.802Z,9.85
2019-05-19T02:28:58.830Z,9.83
2019-05-19T02:31:28.754Z,9.84
2019-05-19T02:36:54.456Z,9.96
2019-05-19T02:39:23.825Z,10.00
2019-05-19T02:45:29.642Z,10.08
2019-05-19T03:03:18.859Z,10.01
2019-05-19T03:05:48.267Z,10.02
2019-05-19T03:08:18.044Z,10.04
2019-05-19T03:11:26.734Z,10.02
2019-05-19T03:13:56.148Z,10.11
2019-05-19T03:17:04.959Z,10.16
2019-05-19T03:19:34.352Z,10.10
2019-05-19T03:24:59.546Z,10.06
2019-05-19T03:30:50.264Z,10.29
2019-05-19T03:36:13.060Z,10.47
2019-05-19T03:38:42.468Z,10.57
2019-05-19T03:44:07.804Z,10.72
2019-05-19T03:46:37.365Z,10.78
2019-05-19T03:49:46.442Z,10.84
2019-05-19T03:55:18.120Z,11.07
2019-05-19T03:57:47.886Z,11.24
2019-05-19T04:00:56.597Z,11.39
2019-05-19T04:06:28.015Z,11.62
2019-05-19T04:09:36.684Z,11.79
2019-05-19T04:12:06.680Z,11.87
2019-05-19T04:14:36.091Z,11.97
2019-05-19T04:17:05.467Z,12.08
2019-05-19T04:22:31.425Z,12.40
2019-05-19T04:25:01.325Z,12.57
2019-05-19T04:30:26.783Z,12.81
2019-05-19T04:32:56.289Z,12.94
2019-05-19T04:38:21.807Z,13.19
2019-05-19T04:40:51.429Z,13.35
2019-05-19T04:43:20.848Z,13.56
2019-05-19T04:45:50.756Z,13.76
2019-05-19T04:48:20.118Z,14.01
2019-05-19T04:50:49.558Z,15.10
2019-05-19T04:53:19.067Z,18.16
2019-05-19T04:55:48.577Z,20.31
2019-05-19T04:58:18.329Z,20.95
2019-05-19T05:01:27.014Z,21.01
2019-05-19T05:03:57.341Z,19.77
2019-05-19T05:07:05.987Z,18.39
2019-05-19T05:09:35.986Z,17.94
2019-05-19T05:12:44.688Z,17.25
2019-05-19T05:18:15.917Z,17.12
2019-05-19T05:20:45.449Z,17.09
2019-05-19T05:23:56.877Z,17.20
2019-05-19T05:26:27.229Z,17.21
2019-05-19T05:29:35.963Z,17.20
2019-05-19T05:35:20.687Z,17.37
2019-05-19T05:37:50.400Z,17.55
2019-05-19T05:43:13.798Z,17.66
2019-05-19T05:48:38.425Z,17.81
2019-05-19T05:51:07.946Z,17.97
2019-05-19T05:53:37.441Z,18.06
2019-05-19T05:56:07.354Z,18.16
2019-05-19T06:02:25.184Z,18.28
2019-05-19T06:04:54.642Z,18.35
2019-05-19T06:07:24.227Z,18.37
2019-05-19T06:12:48.907Z,18.58
2019-05-19T06:18:27.219Z,18.73
2019-05-19T06:21:35.996Z,18.90
2019-05-19T06:24:44.915Z,18.99
2019-05-19T06:27:14.761Z,19.09
2019-05-19T06:29:44.203Z,19.16
2019-05-19T06:32:32.519Z,19.32
2019-05-19T06:35:02.295Z,19.51
2019-05-19T06:37:33.494Z,19.62
2019-05-19T06:40:42.360Z,19.69
2019-05-19T06:43:12.218Z,19.65
2019-05-19T06:45:41.695Z,19.81
2019-05-19T06:48:11.317Z,19.96
2019-05-19T06:50:43.075Z,20.11
2019-05-19T06:56:08.569Z,20.31
2019-05-19T06:59:17.423Z,20.43
2019-05-19T07:02:27.298Z,20.53
2019-05-19T07:07:36.197Z,20.81
2019-05-19T07:13:54.396Z,21.14
2019-05-19T07:16:23.940Z,21.42
2019-05-19T07:22:28.674Z,21.83
2019-05-19T07:28:00.881Z,22.28
2019-05-19T07:36:35.045Z,22.75
2019-05-19T07:42:14.194Z,22.81
2019-05-19T07:44:45.410Z,23.09
2019-05-19T07:50:16.923Z,23.43
2019-05-19T07:52:47.109Z,23.52
2019-05-19T07:55:16.512Z,23.66
2019-05-19T07:57:46.056Z,23.75
2019-05-19T08:06:31.692Z,23.57
2019-05-19T08:12:10.519Z,23.95
2019-05-19T08:14:39.903Z,23.70
2019-05-19T08:17:09.336Z,23.91
2019-05-19T08:20:19.197Z,24.18
2019-05-19T08:25:52.087Z,24.56
2019-05-19T08:28:21.697Z,24.75
2019-05-19T08:31:30.802Z,24.79
2019-05-19T08:34:02.181Z,24.99
2019-05-19T08:39:35.106Z,25.17
2019-05-19T08:45:13.256Z,25.36
2019-05-19T08:47:42.747Z,25.83
2019-05-19T08:53:13.781Z,26.26
2019-05-19T08:56:22.441Z,26.39
2019-05-19T08:58:51.938Z,26.14
2019-05-19T09:01:21.437Z,26.31
2019-05-19T09:04:30.260Z,26.56
2019-05-19T09:07:11.268Z,26.66
2019-05-19T09:10:20.250Z,26.58
2019-05-19T09:15:45.305Z,26.78
2019-05-19T09:18:53.973Z,26.50
2019-05-19T09:27:24.163Z,26.94
2019-05-19T09:29:53.591Z,26.35
2019-05-19T09:32:22.997Z,26.07
2019-05-19T09:34:52.431Z,25.95
2019-05-19T09:37:21.797Z,25.86
2019-05-19T09:39:51.171Z,26.05
2019-05-19T09:42:20.795Z,26.23
2019-05-19T09:44:50.328Z,26.17
2019-05-19T09:47:21.689Z,26.32
2019-05-19T09:50:30.409Z,26.55
2019-05-19T09:53:01.009Z,26.57
2019-05-19T09:56:09.671Z,26.43
2019-05-19T09:58:39.059Z,26.40
2019-05-19T10:01:08.794Z,26.51
2019-05-19T10:03:38.397Z,26.60
2019-05-19T10:10:01.343Z,26.83
2019-05-19T10:18:42.042Z,26.98
2019-05-19T10:21:50.958Z,26.91
2019-05-19T10:25:20.243Z,26.71
2019-05-19T10:30:46.133Z,26.43
2019-05-19T10:33:15.525Z,26.60
2019-05-19T10:35:44.998Z,26.73
2019-05-19T10:38:34.927Z,26.91
2019-05-19T10:41:04.755Z,27.03
2019-05-19T10:43:36.113Z,27.03
2019-05-19T10:46:44.990Z,26.75
2019-05-19T10:52:23.325Z,26.84
2019-05-19T10:54:52.929Z,27.05
2019-05-19T10:58:01.634Z,27.13
2019-05-19T11:00:50.246Z,27.31
2019-05-19T11:03:19.806Z,27.30
2019-05-19T11:05:49.638Z,27.74
2019-05-19T11:14:35.747Z,28.04
2019-05-19T11:23:07.610Z,28.14
2019-05-19T11:25:50.694Z,27.85
2019-05-19T11:28:08.246Z,27.64
2019-05-19T11:31:17.081Z,27.35
2019-05-19T11:36:48.007Z,27.37
2019-05-19T11:39:17.514Z,27.24
2019-05-19T11:42:06.062Z,27.27
2019-05-19T11:47:44.806Z,26.67
2019-05-19T11:50:33.333Z,26.63
2019-05-19T11:55:38.322Z,26.34
2019-05-19T11:58:08.273Z,25.97
2019-05-19T12:01:17.066Z,25.83
2019-05-19T12:03:46.554Z,25.86
2019-05-19T12:06:16.103Z,25.63
2019-05-19T12:08:45.650Z,25.77
2019-05-19T12:11:54.362Z,25.53
2019-05-19T12:14:24.116Z,25.47
2019-05-19T12:17:13.872Z,25.29
2019-05-19T12:19:55.021Z,25.37
2019-05-19T12:25:26.152Z,25.43
2019-05-19T12:31:44.408Z,25.60
2019-05-19T12:34:32.952Z,26.03
2019-05-19T12:37:03.555Z,25.98
2019-05-19T12:42:47.165Z,25.96
2019-05-19T12:45:56.067Z,25.51
2019-05-19T12:49:05.180Z,25.47
2019-05-19T12:54:14.201Z,25.83
2019-05-19T12:57:04.723Z,25.92
2019-05-19T12:59:34.159Z,25.94
2019-05-19T13:05:18.464Z,25.79
2019-05-19T13:07:48.069Z,26.17
2019-05-19T13:10:57.400Z,26.76
2019-05-19T13:13:27.643Z,27.09
2019-05-19T13:15:56.984Z,27.97
2019-05-19T13:19:05.957Z,28.42
2019-05-19T13:21:47.648Z,29.71
2019-05-19T13:24:17.235Z,32.01
2019-05-19T13:30:01.939Z,32.32
2019-05-19T13:32:32.259Z,31.31
2019-05-19T13:35:01.688Z,30.59
2019-05-19T13:37:31.171Z,29.81
2019-05-19T13:40:00.624Z,29.27
2019-05-19T13:42:30.025Z,28.94
2019-05-19T13:45:00.010Z,28.76
2019-05-19T13:48:08.812Z,28.63
2019-05-19T13:50:38.409Z,28.31
2019-05-19T13:56:22.230Z,27.55
2019-05-19T13:59:11.078Z,26.88
2019-05-19T14:04:36.090Z,26.81
2019-05-19T14:07:06.866Z,26.95
2019-05-19T14:09:36.225Z,26.85
2019-05-19T14:15:04.283Z,26.49
2019-05-19T14:17:33.570Z,26.24
2019-05-19T14:20:03.238Z,26.33
2019-05-19T14:22:32.713Z,26.20
2019-05-19T14:25:02.073Z,25.62
2019-05-19T14:27:31.576Z,25.35
2019-05-19T14:30:01.084Z,25.21
2019-05-19T14:32:30.418Z,25.26
2019-05-19T14:34:59.867Z,25.48
2019-05-19T14:37:29.310Z,25.49
2019-05-19T14:39:58.689Z,26.07
2019-05-19T14:42:47.124Z,26.34
2019-05-19T14:51:32.862Z,26.00
2019-05-19T14:54:03.882Z,26.30
2019-05-19T15:00:08.170Z,27.24
2019-05-19T15:02:37.677Z,27.67
2019-05-19T15:05:46.641Z,27.56
2019-05-19T15:11:24.915Z,28.63
2019-05-19T15:14:13.513Z,29.25
2019-05-19T15:16:42.938Z,28.71
2019-05-19T15:19:12.518Z,29.03
2019-05-19T15:21:42.037Z,28.84
2019-05-19T15:24:23.507Z,28.50
2019-05-19T15:29:55.017Z,27.82
2019-05-19T15:32:24.491Z,26.57
2019-05-19T15:38:28.713Z,25.45
2019-05-19T15:44:12.100Z,25.30
2019-05-19T15:47:20.968Z,24.65
2019-05-19T15:49:52.159Z,24.56
2019-05-19T15:55:35.924Z,24.00
2019-05-19T16:01:33.578Z,24.01
2019-05-19T16:04:03.017Z,24.00
2019-05-19T16:07:11.690Z,23.95
2019-05-19T16:13:01.201Z,23.80
2019-05-19T16:15:30.751Z,23.75
2019-05-19T16:21:35.400Z,23.68
2019-05-19T16:27:31.104Z,23.43
2019-05-19T16:30:12.204Z,23.18
2019-05-19T16:35:36.570Z,22.94
2019-05-19T16:38:45.399Z,22.61
2019-05-19T16:41:14.844Z,22.39
2019-05-19T16:43:44.263Z,22.12
2019-05-19T16:46:52.987Z,22.09
2019-05-19T16:49:22.391Z,22.00
2019-05-19T17:00:50.035Z,21.41
2019-05-19T17:03:19.957Z,21.20
2019-05-19T17:05:50.075Z,21.05
2019-05-19T17:11:34.347Z,20.90
2019-05-19T17:23:20.610Z,20.69
2019-05-19T17:25:50.019Z,20.41
2019-05-19T17:31:21.065Z,20.38
2019-05-19T17:36:51.803Z,20.25
2019-05-19T17:39:21.354Z,20.15
2019-05-19T17:41:50.772Z,20.08
2019-05-19T17:44:20.790Z,19.98
2019-05-19T17:53:08.339Z,19.86
2019-05-19T17:56:17.456Z,19.90
2019-05-19T17:59:26.294Z,19.96
2019-05-19T18:05:21.569Z,19.75
2019-05-19T18:11:05.750Z,19.60
2019-05-19T18:13:35.550Z,19.76
2019-05-19T18:16:05.033Z,19.68
2019-05-19T18:18:34.648Z,19.65
2019-05-19T18:21:04.642Z,19.62
2019-05-19T18:24:13.515Z,19.54
2019-05-19T18:26:42.992Z,19.52
2019-05-19T18:29:12.514Z,19.43
2019-05-19T18:31:42.038Z,19.36
2019-05-19T18:34:23.002Z,19.17
2019-05-19T18:37:32.874Z,19.12
2019-05-19T18:42:41.373Z,19.05
2019-05-19T18:45:50.267Z,18.90
2019-05-19T18:51:50.670Z,18.69
2019-05-19T18:54:59.805Z,18.08
2019-05-19T18:57:48.916Z,18.60
2019-05-19T19:00:59.842Z,18.61
2019-05-19T19:03:29.472Z,18.48
2019-05-19T19:05:59.034Z,18.29
2019-05-19T19:08:28.565Z,18.27
2019-05-19T19:10:58.009Z,18.29
2019-05-19T19:13:46.462Z,18.32
2019-05-19T19:19:24.652Z,18.24
2019-05-19T19:21:54.529Z,18.21
2019-05-19T19:24:42.944Z,18.17
2019-05-19T19:36:28.262Z,17.81
2019-05-19T19:42:18.050Z,17.68
2019-05-19T19:56:48.073Z,17.31
2019-05-19T19:59:57.036Z,17.24
2019-05-19T20:03:05.725Z,17.25
2019-05-19T20:08:49.600Z,17.33
2019-05-19T20:11:19.206Z,17.21
2019-05-19T20:17:22.930Z,17.22
2019-05-19T20:23:17.546Z,17.20
2019-05-19T20:25:46.911Z,16.94
2019-05-19T20:31:44.654Z,16.80
2019-05-19T20:37:21.175Z,16.92
2019-05-19T20:45:52.639Z,16.85
2019-05-19T20:48:22.538Z,16.79
2019-05-19T20:51:31.258Z,16.74
2019-05-19T20:54:00.897Z,16.73
2019-05-19T20:57:09.703Z,16.65
2019-05-19T20:59:39.197Z,16.60
2019-05-19T21:02:08.579Z,16.56
2019-05-19T21:04:38.048Z,16.56
2019-05-19T21:07:07.987Z,16.53
2019-05-19T21:10:16.725Z,16.53
2019-05-19T21:12:46.240Z,16.32
2019-05-19T21:15:55.015Z,15.98
2019-05-19T21:21:38.777Z,15.90
2019-05-19T21:24:47.449Z,15.93
2019-05-19T21:27:18.035Z,16.00
2019-05-19T21:29:47.448Z,16.04
2019-05-19T21:32:17.008Z,16.05
2019-05-19T21:34:46.641Z,16.07
2019-05-19T21:37:16.179Z,16.04
2019-05-19T21:39:45.681Z,16.09
2019-05-19T21:42:54.390Z,16.09
2019-05-19T21:45:24.013Z,16.08
2019-05-19T21:47:53.618Z,16.04
2019-05-19T21:50:23.282Z,16.03
2019-05-19T21:52:52.959Z,16.05
2019-05-19T21:55:24.294Z,16.01
2019-05-19T21:57:53.842Z,15.96
2019-05-19T22:06:49.505Z,15.86
2019-05-19T22:12:09.304Z,15.77
2019-05-19T22:14:38.884Z,15.73
2019-05-19T22:17:08.477Z,15.61
2019-05-19T22:20:17.316Z,15.46
2019-05-19T22:22:46.982Z,15.38
2019-05-19T22:25:17.349Z,15.20
2019-05-19T22:31:00.601Z,15.12
2019-05-19T22:33:30.026Z,15.15
2019-05-19T22:41:49.888Z,14.58
2019-05-19T22:44:20.314Z,14.71
2019-05-19T22:46:50.879Z,14.77
2019-05-19T22:52:29.323Z,14.82
2019-05-19T22:54:58.840Z,14.75
2019-05-19T22:57:28.222Z,14.79
2019-05-19T22:59:57.773Z,14.92
2019-05-19T23:05:41.820Z,15.06
2019-05-19T23:08:50.512Z,15.10
2019-05-19T23:11:59.261Z,15.08
2019-05-19T23:14:28.620Z,15.01
2019-05-19T23:16:57.998Z,15.11
2019-05-19T23:19:27.437Z,14.82
2019-05-19T23:21:56.951Z,14.48
2019-05-19T23:24:26.416Z,14.46
2019-05-19T23:26:55.907Z,14.55
2019-05-19T23:29:25.286Z,14.60
2019-05-19T23:32:06.207Z,14.66
2019-05-19T23:34:26.069Z,14.63
2019-05-19T23:37:15.842Z,14.62
2019-05-19T23:39:45.351Z,14.69
2019-05-19T23:42:54.054Z,14.70
2019-05-19T23:48:18.689Z,14.54
2019-05-19T23:50:48.053Z,14.53
2019-05-19T23:53:56.755Z,14.49
2019-05-19T23:56:26.271Z,14.44
2019-05-19T23:59:35.050Z,14.43
